Time;durP1;ratioP1;P1;durP2;ratioP2;P2;SDS_P1;SDS_P2;PMS_P1;PMS_P2;Temp;Humidity;BMP_temperature;BMP_pressure;BME280_temperature;BME280_humidity;BME280_pressure;Samples;Min_cycle;Max_cycle;Signal;HPM_P1;HPM_P2
2021/07/24 00:02:21;;;;;;;14.73;13.13;;;18.10;99.90;;;;;;4971563;28;20031;-72
2021/07/24 00:04:47;;;;;;;16.10;13.95;;;17.90;99.90;;;;;;4972452;28;20106;-72
2021/07/24 00:07:12;;;;;;;19.55;14.23;;;17.80;99.90;;;;;;4972768;28;20509;-72
2021/07/24 00:09:38;;;;;;;19.67;14.45;;;17.70;99.90;;;;;;4972678;28;20022;-72
2021/07/24 00:12:04;;;;;;;18.92;14.20;;;17.60;99.90;;;;;;4971609;28;20030;-72
2021/07/24 00:14:29;;;;;;;18.90;14.02;;;17.70;99.90;;;;;;4972363;28;20026;-73
2021/07/24 00:16:55;;;;;;;19.77;14.95;;;17.70;99.90;;;;;;4972627;28;20042;-72
2021/07/24 00:19:20;;;;;;;19.33;14.77;;;17.50;99.90;;;;;;4972480;28;20453;-73
2021/07/24 00:21:46;;;;;;;20.20;15.55;;;17.40;99.90;;;;;;4972641;28;20102;-73
2021/07/24 00:24:11;;;;;;;20.45;14.63;;;17.30;99.90;;;;;;4972500;28;20163;-73
2021/07/24 00:26:37;;;;;;;20.38;15.20;;;17.10;99.90;;;;;;4971086;28;20385;-72
2021/07/24 00:29:05;;;;;;;20.58;15.65;;;17.10;99.90;;;;;;4972375;28;20089;-72
2021/07/24 00:31:32;;;;;;;22.00;16.00;;;17.20;99.90;;;;;;4972538;28;20359;-72
2021/07/24 00:33:57;;;;;;;18.58;14.57;;;17.30;99.90;;;;;;4972568;28;20023;-72
2021/07/24 00:36:23;;;;;;;21.40;14.93;;;17.40;99.90;;;;;;4972294;28;20037;-72
2021/07/24 00:38:48;;;;;;;19.00;14.90;;;17.40;99.90;;;;;;4972370;28;20035;-73
2021/07/24 00:41:21;;;;;;;19.92;14.95;;;17.40;99.90;;;;;;4972279;28;20034;-73
2021/07/24 00:43:49;;;;;;;21.42;15.45;;;17.20;99.90;;;;;;4972482;28;20226;-73
2021/07/24 00:46:15;;;;;;;21.10;15.45;;;17.20;99.90;;;;;;4972234;28;20033;-72
2021/07/24 00:48:43;;;;;;;22.33;15.20;;;17.30;99.90;;;;;;4973218;28;20031;-72
2021/07/24 00:51:08;;;;;;;20.08;14.82;;;17.30;99.90;;;;;;5000830;28;20018;-72
2021/07/24 00:53:35;;;;;;;18.30;14.98;;;17.10;99.90;;;;;;4998751;28;20101;-73
2021/07/24 00:56:02;;;;;;;19.83;15.32;;;17.10;99.90;;;;;;4994875;28;20069;-72
2021/07/24 00:58:33;;;;;;;19.60;14.88;;;17.40;99.90;;;;;;4975693;28;20027;-72
2021/07/24 01:01:00;;;;;;;20.58;15.27;;;17.30;99.90;;;;;;4975818;28;20037;-73
2021/07/24 01:03:26;;;;;;;20.77;15.02;;;17.40;99.90;;;;;;4975528;28;20030;-72
2021/07/24 01:05:54;;;;;;;18.42;14.88;;;17.60;99.90;;;;;;4974236;28;20401;-72
2021/07/24 01:08:20;;;;;;;20.65;15.25;;;17.60;99.90;;;;;;4975401;28;20018;-73
2021/07/24 01:10:49;;;;;;;19.75;15.43;;;17.30;99.90;;;;;;4975539;28;20136;-73
2021/07/24 01:13:16;;;;;;;20.42;15.32;;;17.20;99.90;;;;;;4975713;28;20027;-73
2021/07/24 01:15:46;;;;;;;20.80;15.55;;;17.20;99.90;;;;;;4975282;28;20030;-72
2021/07/24 01:18:12;;;;;;;22.02;15.45;;;17.30;99.90;;;;;;4975343;28;20142;-73
2021/07/24 01:20:40;;;;;;;20.27;15.40;;;17.20;99.90;;;;;;4974094;28;20505;-73
2021/07/24 01:23:07;;;;;;;21.13;15.02;;;17.20;99.90;;;;;;4975047;28;20038;-72
2021/07/24 01:25:34;;;;;;;19.83;15.15;;;17.10;99.90;;;;;;4975074;28;20026;-73
2021/07/24 01:27:59;;;;;;;21.30;15.68;;;17.20;99.90;;;;;;4975258;28;20113;-73
2021/07/24 01:30:25;;;;;;;20.17;15.68;;;17.30;99.90;;;;;;4975113;28;20075;-72
2021/07/24 01:32:50;;;;;;;19.02;14.82;;;17.20;99.90;;;;;;4975085;28;20023;-73
2021/07/24 01:35:16;;;;;;;18.42;14.82;;;17.20;99.90;;;;;;4974887;28;20493;-72
2021/07/24 01:37:41;;;;;;;18.80;14.38;;;17.30;99.90;;;;;;4973636;28;20031;-73
2021/07/24 01:40:08;;;;;;;19.20;15.65;;;17.20;99.90;;;;;;4973595;28;20070;-72
2021/07/24 01:42:33;;;;;;;18.20;14.85;;;17.00;99.90;;;;;;4974962;28;20023;-72
2021/07/24 01:44:58;;;;;;;20.27;15.43;;;17.00;99.90;;;;;;4974654;28;20035;-72
2021/07/24 01:47:24;;;;;;;21.23;15.57;;;17.10;99.90;;;;;;4973577;28;20085;-72
2021/07/24 01:52:48;;;;;;;19.98;15.52;;;17.00;99.90;;;;;;4975036;28;20153;-72
2021/07/24 01:55:44;;;;;;;22.23;16.15;;;17.10;99.90;;;;;;4974508;28;20023;-73
2021/07/24 01:58:14;;;;;;;19.35;15.63;;;17.00;99.90;;;;;;4977042;28;20042;-73
2021/07/24 02:00:42;;;;;;;21.63;16.40;;;16.90;99.90;;;;;;4973678;28;20030;-73
2021/07/24 02:03:12;;;;;;;22.38;17.50;;;17.00;99.90;;;;;;4974438;28;20130;-73
2021/07/24 02:05:49;;;;;;;22.58;16.48;;;17.00;99.90;;;;;;4974328;28;20026;-73
2021/07/24 02:08:23;;;;;;;20.70;16.73;;;17.00;99.90;;;;;;4973032;28;20023;-72
2021/07/24 02:10:50;;;;;;;26.02;16.95;;;16.90;99.90;;;;;;4974403;28;20026;-73
2021/07/24 02:13:18;;;;;;;19.70;16.17;;;16.90;99.90;;;;;;4974332;28;20290;-73
2021/07/24 02:15:44;;;;;;;22.15;15.85;;;16.90;99.90;;;;;;4974140;28;20094;-72
2021/07/24 02:18:15;;;;;;;24.58;16.30;;;16.90;99.90;;;;;;4974371;28;20027;-73
2021/07/24 02:20:44;;;;;;;22.90;16.33;;;16.80;99.90;;;;;;4974438;28;20034;-72
2021/07/24 02:23:09;;;;;;;20.33;15.35;;;16.80;99.90;;;;;;4974622;28;20081;-72
2021/07/24 02:25:35;;;;;;;21.25;15.52;;;16.70;99.90;;;;;;4973893;28;20425;-72
2021/07/24 02:28:00;;;;;;;24.02;16.45;;;16.70;99.90;;;;;;4974265;28;20033;-72
2021/07/24 02:30:26;;;;;;;20.90;15.38;;;16.60;99.90;;;;;;4973992;28;20102;-72
2021/07/24 02:32:51;;;;;;;21.60;15.68;;;16.60;99.90;;;;;;4974072;28;20661;-73
2021/07/24 02:35:17;;;;;;;20.02;16.08;;;16.60;99.90;;;;;;4973798;28;20026;-73
2021/07/24 02:37:42;;;;;;;21.63;16.10;;;16.60;99.90;;;;;;4973834;28;20031;-72
2021/07/24 02:40:08;;;;;;;21.25;14.85;;;16.60;99.90;;;;;;4973732;28;20508;-73
2021/07/24 02:42:34;;;;;;;22.98;15.25;;;16.50;99.90;;;;;;4973804;28;20042;-73
2021/07/24 02:44:59;;;;;;;22.42;15.23;;;16.50;99.90;;;;;;4973530;28;20027;-73
2021/07/24 02:47:25;;;;;;;22.73;14.98;;;16.60;99.90;;;;;;4973690;28;20027;-72
2021/07/24 02:49:51;;;;;;;19.05;15.30;;;16.50;99.90;;;;;;4978930;28;20041;-72
2021/07/24 02:52:16;;;;;;;19.52;15.30;;;16.50;99.90;;;;;;5006183;28;20032;-72
2021/07/24 02:54:42;;;;;;;21.45;15.52;;;16.50;99.90;;;;;;4991549;28;20030;-72
2021/07/24 02:57:08;;;;;;;23.52;15.98;;;16.50;99.90;;;;;;4987345;28;20031;-72
2021/07/24 02:59:34;;;;;;;22.20;15.35;;;16.40;99.90;;;;;;4973764;28;20109;-72
2021/07/24 03:02:00;;;;;;;21.98;15.80;;;16.50;99.90;;;;;;4973485;28;20031;-72
2021/07/24 03:04:25;;;;;;;23.00;16.13;;;16.60;99.90;;;;;;4972003;28;20026;-72
2021/07/24 03:06:51;;;;;;;23.48;15.98;;;16.60;99.90;;;;;;4973421;28;20037;-72
2021/07/24 03:09:17;;;;;;;25.98;16.50;;;16.50;99.90;;;;;;4973232;28;20034;-72
2021/07/24 03:11:43;;;;;;;22.63;15.50;;;16.40;99.90;;;;;;4973226;28;20027;-72
2021/07/24 03:14:09;;;;;;;24.88;15.70;;;16.30;99.90;;;;;;4973318;28;20027;-73
2021/07/24 03:16:34;;;;;;;22.60;15.32;;;16.30;99.90;;;;;;4973074;28;20454;-72
2021/07/24 03:19:00;;;;;;;19.98;15.00;;;16.30;99.90;;;;;;4971930;28;20175;-72
2021/07/24 03:21:26;;;;;;;22.02;14.63;;;16.40;99.90;;;;;;4973102;28;20038;-72
2021/07/24 03:23:51;;;;;;;20.35;14.63;;;16.50;99.90;;;;;;4973047;28;20066;-72
2021/07/24 03:26:19;;;;;;;19.80;15.13;;;16.40;99.90;;;;;;4971684;28;20046;-72
2021/07/24 03:28:46;;;;;;;21.67;15.43;;;16.50;99.90;;;;;;4973099;28;20031;-72
2021/07/24 03:31:12;;;;;;;19.45;14.18;;;16.50;99.90;;;;;;4973453;28;20027;-72
2021/07/24 03:33:37;;;;;;;20.02;14.43;;;16.70;99.90;;;;;;4973124;28;20019;-72
2021/07/24 03:36:04;;;;;;;21.33;14.63;;;16.80;99.90;;;;;;4973227;28;20116;-72
2021/07/24 03:38:30;;;;;;;19.73;15.05;;;16.70;99.90;;;;;;4972808;28;20033;-72
2021/07/24 03:40:56;;;;;;;22.13;15.52;;;16.50;99.90;;;;;;4972993;28;20023;-72
2021/07/24 03:43:21;;;;;;;22.23;15.75;;;16.50;99.90;;;;;;4972910;28;20559;-72
2021/07/24 03:45:47;;;;;;;22.38;15.52;;;16.60;99.90;;;;;;4972750;28;20081;-72
2021/07/24 03:48:12;;;;;;;23.10;16.02;;;16.50;99.90;;;;;;4972775;28;20035;-72
2021/07/24 03:50:41;;;;;;;19.40;15.55;;;16.30;99.90;;;;;;4990093;28;20034;-72
2021/07/24 03:53:06;;;;;;;21.88;16.63;;;16.30;99.90;;;;;;4999518;28;20424;-72
2021/07/24 03:55:34;;;;;;;22.02;15.52;;;16.30;99.90;;;;;;4992038;28;20038;-72
2021/07/24 03:58:00;;;;;;;21.70;16.27;;;16.40;99.90;;;;;;4978161;28;20126;-72
2021/07/24 04:00:29;;;;;;;23.98;15.13;;;16.50;99.90;;;;;;4972832;28;20026;-72
2021/07/24 04:03:00;;;;;;;22.00;15.25;;;16.40;99.90;;;;;;4972655;28;20109;-72
2021/07/24 04:05:26;;;;;;;19.63;15.65;;;16.40;99.90;;;;;;4972446;28;20027;-72
2021/07/24 04:07:51;;;;;;;24.60;16.65;;;16.60;99.90;;;;;;4972957;28;20039;-72
2021/07/24 04:10:17;;;;;;;21.88;16.58;;;16.70;99.90;;;;;;4972835;28;20496;-72
2021/07/24 04:12:43;;;;;;;25.15;16.83;;;16.50;99.90;;;;;;4971339;28;20054;-72
2021/07/24 04:15:10;;;;;;;22.80;16.77;;;16.40;99.90;;;;;;4972546;28;20050;-72
2021/07/24 04:17:35;;;;;;;20.25;16.08;;;16.50;99.90;;;;;;4971261;28;20146;-72
2021/07/24 04:20:02;;;;;;;22.73;16.50;;;16.60;99.90;;;;;;4972414;28;20034;-72
2021/07/24 04:22:27;;;;;;;24.90;17.10;;;16.50;99.90;;;;;;4973273;28;20496;-72
2021/07/24 04:24:53;;;;;;;27.67;17.17;;;16.60;99.90;;;;;;4976060;28;20042;-72
2021/07/24 04:27:19;;;;;;;20.10;16.13;;;16.50;99.90;;;;;;4976245;28;20023;-72
2021/07/24 04:29:44;;;;;;;21.08;15.98;;;16.60;99.90;;;;;;4974975;28;20473;-72
2021/07/24 04:32:09;;;;;;;21.55;15.90;;;16.70;99.90;;;;;;4976208;28;20054;-72
2021/07/24 04:34:35;;;;;;;20.10;15.98;;;16.80;99.90;;;;;;4975813;28;20080;-72
2021/07/24 04:37:00;;;;;;;22.52;16.83;;;16.90;99.90;;;;;;4976219;28;20039;-72
2021/07/24 04:39:26;;;;;;;22.55;16.67;;;16.80;99.90;;;;;;4982634;28;20034;-72
2021/07/24 04:41:52;;;;;;;22.58;15.95;;;17.00;99.90;;;;;;4995570;28;20074;-72
2021/07/24 04:44:17;;;;;;;23.45;16.90;;;17.10;99.90;;;;;;4995645;28;20041;-72
2021/07/24 04:46:43;;;;;;;19.73;15.57;;;17.20;99.90;;;;;;4994110;28;20053;-72
2021/07/24 04:49:09;;;;;;;20.45;16.00;;;17.40;99.90;;;;;;4995167;28;20034;-72
2021/07/24 04:51:35;;;;;;;21.27;16.48;;;17.60;99.90;;;;;;5008270;28;20026;-72
2021/07/24 04:54:04;;;;;;;20.73;15.85;;;17.80;99.90;;;;;;4995357;28;20499;-72
2021/07/24 04:56:31;;;;;;;23.25;16.00;;;18.00;99.90;;;;;;4994176;28;20050;-72
2021/07/24 04:58:58;;;;;;;19.58;15.60;;;18.20;99.90;;;;;;4974209;28;20561;-72
2021/07/24 05:01:24;;;;;;;21.33;14.27;;;18.30;99.90;;;;;;4974446;28;20402;-72
2021/07/24 05:03:49;;;;;;;21.00;14.65;;;18.60;99.90;;;;;;4975571;28;20034;-72
2021/07/24 05:06:15;;;;;;;106.30;35.15;;;18.70;99.90;;;;;;4975684;28;20023;-72
2021/07/24 05:08:41;;;;;;;23.67;15.50;;;18.70;99.90;;;;;;4975514;28;20030;-72
2021/07/24 05:11:07;;;;;;;16.35;10.43;;;18.80;99.90;;;;;;4975874;28;20027;-72
2021/07/24 05:13:33;;;;;;;11.82;7.35;;;18.90;99.90;;;;;;4975445;28;20038;-72
2021/07/24 05:15:58;;;;;;;15.15;8.13;;;18.90;99.90;;;;;;4975242;28;20030;-72
2021/07/24 05:18:24;;;;;;;14.93;10.15;;;19.00;99.90;;;;;;4975305;28;20027;-72
2021/07/24 05:20:49;;;;;;;20.10;14.80;;;19.00;99.90;;;;;;4975451;28;20393;-72
2021/07/24 05:23:15;;;;;;;17.17;10.68;;;18.80;99.90;;;;;;4975450;28;20088;-72
2021/07/24 05:25:42;;;;;;;23.33;13.85;;;19.00;99.90;;;;;;4975079;28;20109;-72
2021/07/24 05:28:07;;;;;;;21.90;15.02;;;18.70;99.90;;;;;;4975329;28;20027;-72
2021/07/24 05:30:33;;;;;;;22.08;15.00;;;18.90;99.90;;;;;;4975030;28;20054;-72
2021/07/24 05:32:59;;;;;;;17.38;13.57;;;18.90;99.90;;;;;;4974993;28;20026;-72
2021/07/24 05:35:24;;;;;;;20.30;12.50;;;19.10;99.90;;;;;;4973614;28;20027;-72
2021/07/24 05:37:50;;;;;;;15.63;11.77;;;19.30;99.90;;;;;;4975047;28;20030;-72
2021/07/24 05:40:16;;;;;;;21.98;12.65;;;19.60;99.90;;;;;;4974885;28;20470;-72
2021/07/24 05:42:41;;;;;;;18.40;12.02;;;19.60;99.90;;;;;;4974871;28;20094;-72
2021/07/24 05:45:07;;;;;;;21.17;11.63;;;19.70;99.90;;;;;;4974598;28;20031;-72
2021/07/24 05:47:33;;;;;;;18.90;12.27;;;19.80;99.90;;;;;;4974651;28;20027;-72
2021/07/24 05:49:59;;;;;;;19.73;11.48;;;20.00;99.90;;;;;;4980618;28;20037;-72
2021/07/24 05:52:25;;;;;;;19.48;8.63;;;20.00;99.90;;;;;;5005674;28;20579;-72
2021/07/24 05:54:51;;;;;;;15.50;8.18;;;20.20;99.90;;;;;;4993848;28;20105;-72
2021/07/24 05:57:16;;;;;;;18.23;7.75;;;20.30;99.90;;;;;;4987064;28;20093;-72
2021/07/24 05:59:42;;;;;;;13.82;7.35;;;20.40;99.90;;;;;;4974473;28;20030;-72
2021/07/24 06:02:10;;;;;;;16.40;10.18;;;20.50;99.90;;;;;;4974579;28;20027;-72
2021/07/24 06:04:35;;;;;;;16.38;12.82;;;20.70;99.90;;;;;;4973381;28;20030;-72
2021/07/24 06:07:01;;;;;;;24.17;14.45;;;20.90;99.90;;;;;;4974797;28;20080;-72
2021/07/24 06:09:27;;;;;;;45.03;10.80;;;21.10;99.90;;;;;;4974548;28;20201;-72
2021/07/24 06:11:53;;;;;;;16.45;11.85;;;21.20;99.90;;;;;;4974453;28;20023;-73
2021/07/24 06:14:18;;;;;;;17.10;13.13;;;21.20;99.90;;;;;;4974230;28;20113;-72
2021/07/24 06:16:44;;;;;;;19.30;12.30;;;21.20;99.90;;;;;;4974003;28;20516;-72
2021/07/24 06:19:09;;;;;;;19.58;15.23;;;21.10;99.90;;;;;;4973018;28;20117;-72
2021/07/24 06:21:35;;;;;;;23.40;18.48;;;20.70;99.90;;;;;;4974197;28;20031;-72
2021/07/24 06:24:00;;;;;;;22.15;17.27;;;20.30;99.90;;;;;;4974149;28;20034;-72
2021/07/24 06:26:26;;;;;;;23.55;17.83;;;20.10;99.90;;;;;;4973973;28;20481;-72
2021/07/24 06:28:51;;;;;;;21.90;18.33;;;20.20;99.90;;;;;;4973992;28;20027;-72
2021/07/24 06:31:17;;;;;;;22.58;17.65;;;20.40;99.90;;;;;;4973884;28;20440;-72
2021/07/24 06:33:42;;;;;;;24.50;16.48;;;20.50;99.90;;;;;;4973999;28;20054;-72
2021/07/24 06:36:08;;;;;;;21.73;16.98;;;20.50;99.90;;;;;;4973658;28;20041;-72
2021/07/24 06:38:34;;;;;;;21.27;17.45;;;20.60;99.90;;;;;;4972625;28;20019;-72
2021/07/24 06:41:00;;;;;;;32.35;30.00;;;20.50;99.90;;;;;;4973918;28;20105;-72
2021/07/24 06:43:26;;;;;;;72.10;68.35;;;20.70;99.90;;;;;;4973942;28;20019;-73
2021/07/24 06:45:51;;;;;;;37.78;35.00;;;20.70;99.90;;;;;;4971672;28;20077;-72
2021/07/24 06:48:17;;;;;;;62.25;58.95;;;20.80;99.90;;;;;;4973594;28;20088;-72
2021/07/24 06:50:42;;;;;;;27.52;26.10;;;20.90;99.90;;;;;;4991629;28;20030;-72
2021/07/24 06:53:08;;;;;;;35.63;33.72;;;21.10;99.90;;;;;;5000210;28;20432;-72
2021/07/24 06:55:33;;;;;;;28.42;26.73;;;21.20;99.90;;;;;;4992812;28;20076;-73
2021/07/24 06:58:02;;;;;;;45.17;42.70;;;21.10;99.90;;;;;;4980861;28;20023;-72
2021/07/24 07:00:32;;;;;;;43.05;40.45;;;21.00;99.90;;;;;;4973360;28;20440;-73
2021/07/24 07:03:01;;;;;;;38.60;36.38;;;21.20;99.90;;;;;;4973367;28;20536;-72
2021/07/24 07:05:28;;;;;;;42.80;40.03;;;21.40;99.90;;;;;;4973276;28;20029;-72
2021/07/24 07:07:53;;;;;;;36.67;34.38;;;21.20;99.90;;;;;;4973272;28;20509;-72
2021/07/24 07:10:20;;;;;;;26.75;24.58;;;21.10;99.90;;;;;;4973208;28;20038;-72
2021/07/24 07:12:45;;;;;;;20.38;18.25;;;21.00;99.90;;;;;;4973318;28;20218;-72
2021/07/24 07:15:11;;;;;;;67.45;17.02;;;21.10;99.90;;;;;;4973046;28;20035;-72
2021/07/24 07:17:37;;;;;;;18.42;10.10;;;21.10;99.90;;;;;;4973505;28;20027;-72
2021/07/24 07:20:07;;;;;;;19.38;11.13;;;21.00;99.90;;;;;;4973329;28;20579;-72
2021/07/24 07:22:32;;;;;;;19.20;10.50;;;21.10;99.90;;;;;;4973202;28;20105;-72
2021/07/24 07:24:58;;;;;;;40.90;17.02;;;21.30;99.90;;;;;;4972852;28;20154;-72
2021/07/24 07:27:23;;;;;;;25.20;16.48;;;21.40;99.90;;;;;;4973161;28;20508;-72
2021/07/24 07:29:49;;;;;;;24.75;16.42;;;21.40;99.90;;;;;;4971555;28;20093;-72
2021/07/24 07:32:14;;;;;;;17.58;11.63;;;21.20;99.90;;;;;;4973016;28;20468;-72
2021/07/24 07:34:40;;;;;;;21.83;9.63;;;21.40;99.90;;;;;;4972709;28;20031;-73
2021/07/24 07:37:06;;;;;;;14.07;7.80;;;21.40;99.90;;;;;;4973015;28;20544;-72
2021/07/24 07:39:31;;;;;;;13.95;8.68;;;21.40;99.90;;;;;;4972913;28;20380;-72
2021/07/24 07:41:57;;;;;;;13.60;10.32;;;21.50;99.90;;;;;;4971693;28;20034;-72
2021/07/24 07:44:24;;;;;;;14.52;10.25;;;21.60;99.90;;;;;;4972426;28;20089;-72
2021/07/24 07:46:52;;;;;;;16.08;9.95;;;21.70;99.90;;;;;;4972883;28;20512;-72
2021/07/24 07:49:18;;;;;;;21.20;10.95;;;21.80;99.90;;;;;;4971965;28;20057;-72
2021/07/24 07:51:43;;;;;;;18.17;12.07;;;21.80;99.90;;;;;;5005515;28;20391;-72
2021/07/24 07:54:09;;;;;;;22.85;13.73;;;22.10;99.90;;;;;;4990946;28;20497;-72
2021/07/24 07:56:35;;;;;;;22.00;13.90;;;22.20;99.90;;;;;;4990902;28;20477;-72
2021/07/24 07:59:00;;;;;;;374.48;96.82;;;22.30;99.90;;;;;;4975678;28;20612;-72
2021/07/24 08:01:26;;;;;;;20.52;10.55;;;22.60;99.90;;;;;;4975509;28;20393;-72
2021/07/24 08:03:51;;;;;;;17.50;10.63;;;23.00;99.90;;;;;;4976641;28;20114;-72
2021/07/24 08:06:17;;;;;;;13.95;9.93;;;23.10;99.90;;;;;;4976401;28;20405;-73
2021/07/24 08:08:43;;;;;;;13.70;7.95;;;23.40;99.90;;;;;;4976633;28;20086;-73
2021/07/24 08:11:08;;;;;;;14.13;8.07;;;23.60;99.90;;;;;;4976561;28;20023;-73
2021/07/24 08:13:34;;;;;;;12.95;7.40;;;23.60;99.90;;;;;;4976552;28;20039;-73
2021/07/24 08:15:59;;;;;;;14.75;6.57;;;23.80;99.90;;;;;;4976196;28;20031;-73
2021/07/24 08:18:25;;;;;;;14.00;7.97;;;24.00;99.90;;;;;;4976509;28;20057;-72
2021/07/24 08:20:51;;;;;;;12.30;7.43;;;24.10;99.90;;;;;;4976360;28;20041;-72
2021/07/24 08:23:16;;;;;;;12.88;7.07;;;24.30;99.90;;;;;;4976373;28;20559;-73
2021/07/24 08:25:43;;;;;;;8.65;5.97;;;24.50;99.90;;;;;;4976188;28;20113;-73
2021/07/24 08:28:09;;;;;;;9.05;6.53;;;24.70;99.90;;;;;;4975267;28;20463;-72
2021/07/24 08:30:35;;;;;;;170.75;35.25;;;24.80;99.90;;;;;;4975996;28;20473;-72
2021/07/24 08:33:00;;;;;;;18.17;11.90;;;24.90;99.90;;;;;;4976484;28;20037;-72
2021/07/24 08:35:27;;;;;;;15.73;13.30;;;24.90;99.90;;;;;;4976042;28;20034;-72
2021/07/24 08:37:52;;;;;;;15.38;13.40;;;24.90;99.90;;;;;;4974939;28;20031;-72
2021/07/24 08:40:18;;;;;;;22.10;11.48;;;24.90;99.90;;;;;;4975877;28;20073;-72
2021/07/24 08:42:44;;;;;;;17.27;10.63;;;24.90;99.90;;;;;;4975957;28;20504;-72
2021/07/24 08:45:11;;;;;;;14.23;10.07;;;25.10;99.90;;;;;;4975482;28;20031;-72
2021/07/24 08:47:37;;;;;;;15.70;10.77;;;25.30;99.90;;;;;;4976325;28;20473;-72
2021/07/24 08:50:05;;;;;;;16.40;10.55;;;25.30;99.90;;;;;;4982846;28;20085;-73
2021/07/24 08:52:32;;;;;;;12.77;9.90;;;25.20;99.90;;;;;;5007207;28;20039;-72
2021/07/24 08:54:59;;;;;;;16.13;10.10;;;25.30;99.90;;;;;;4994995;28;20034;-72
2021/07/24 08:57:31;;;;;;;13.77;9.85;;;25.10;99.90;;;;;;4987564;28;20046;-72
2021/07/24 09:00:01;;;;;;;15.85;9.18;;;25.10;99.90;;;;;;4975418;28;20031;-73
2021/07/24 09:02:28;;;;;;;11.35;6.95;;;25.60;99.90;;;;;;4975649;28;20114;-72
2021/07/24 09:04:55;;;;;;;15.35;10.05;;;25.40;99.90;;;;;;4975288;28;20031;-72
2021/07/24 09:07:27;;;;;;;16.88;9.07;;;25.50;99.90;;;;;;4975542;28;20059;-73
2021/07/24 09:09:55;;;;;;;14.52;11.02;;;25.90;99.90;;;;;;4973771;28;20027;-73
2021/07/24 09:12:22;;;;;;;13.55;12.15;;;26.10;99.90;;;;;;4975736;28;20034;-73
2021/07/24 09:14:48;;;;;;;16.05;13.05;;;26.00;99.90;;;;;;4975556;28;20082;-73
2021/07/24 09:17:19;;;;;;;16.75;12.35;;;26.00;99.90;;;;;;4975395;28;20039;-73
2021/07/24 09:19:45;;;;;;;111.68;19.08;;;26.10;99.90;;;;;;4975158;28;20026;-73
2021/07/24 09:22:33;;;;;;;11.18;5.88;;;26.00;99.90;;;;;;4975238;28;20046;-73
2021/07/24 09:25:14;;;;;;;9.80;5.13;;;26.60;99.90;;;;;;4974969;28;20031;-73
2021/07/24 09:27:44;;;;;;;13.00;6.32;;;26.80;99.90;;;;;;4975114;28;20038;-73
2021/07/24 09:30:28;;;;;;;10.23;5.13;;;26.90;99.90;;;;;;4975189;28;20029;-72
2021/07/24 09:33:05;;;;;;;5.47;4.43;;;26.90;99.90;;;;;;4973869;28;20388;-72
2021/07/24 09:35:41;;;;;;;7.22;4.32;;;26.70;99.90;;;;;;4974930;28;20027;-72
2021/07/24 09:38:33;;;;;;;7.45;4.38;;;26.50;99.90;;;;;;4973919;28;20118;-72
2021/07/24 09:41:03;;;;;;;9.00;5.97;;;27.00;99.90;;;;;;4974843;28;20026;-72
2021/07/24 09:43:39;;;;;;;13.85;5.70;;;27.20;99.90;;;;;;4974937;28;20031;-72
2021/07/24 09:46:22;;;;;;;10.65;5.93;;;27.20;99.90;;;;;;4973699;28;20038;-72
2021/07/24 09:48:49;;;;;;;8.77;5.10;;;27.40;99.90;;;;;;4990781;28;20026;-74
2021/07/24 09:51:16;;;;;;;8.82;5.65;;;27.10;99.90;;;;;;5003319;28;20387;-73
2021/07/24 09:53:43;;;;;;;7.03;5.40;;;26.90;99.90;;;;;;4995563;28;20038;-73
2021/07/24 09:56:14;;;;;;;7.75;4.80;;;27.30;99.90;;;;;;4993936;28;20400;-73
2021/07/24 09:58:40;;;;;;;8.63;5.35;;;27.30;99.90;;;;;;4975112;28;20034;-73
2021/07/24 10:01:08;;;;;;;10.70;4.88;;;27.50;99.90;;;;;;4974654;28;20023;-73
2021/07/24 10:03:35;;;;;;;12.10;6.03;;;27.70;99.90;;;;;;4974476;28;20497;-73
2021/07/24 10:06:11;;;;;;;9.80;5.60;;;27.80;99.90;;;;;;4974197;28;20106;-73
2021/07/24 10:08:46;;;;;;;11.20;5.35;;;27.80;99.90;;;;;;4973209;28;20030;-73
2021/07/24 10:11:12;;;;;;;9.77;5.07;;;27.60;99.90;;;;;;4974442;28;20019;-73
2021/07/24 10:13:39;;;;;;;8.77;4.88;;;27.80;99.90;;;;;;4974426;28;20513;-73
2021/07/24 10:16:04;;;;;;;10.68;5.45;;;27.80;99.90;;;;;;4974177;28;20461;-73
2021/07/24 10:18:30;;;;;;;8.48;4.43;;;27.80;99.90;;;;;;4974152;28;20102;-73
2021/07/24 10:20:56;;;;;;;9.38;4.85;;;27.70;99.90;;;;;;4973483;28;20037;-73
2021/07/24 10:23:23;;;;;;;12.48;5.75;;;27.70;99.90;;;;;;4974627;28;20078;-73
2021/07/24 10:26:10;;;;;;;7.30;4.78;;;27.70;99.90;;;;;;4973923;28;20050;-73
2021/07/24 10:28:45;;;;;;;14.00;5.72;;;28.30;99.90;;;;;;4974065;28;20023;-73
2021/07/24 10:31:14;;;;;;;8.35;4.80;;;28.40;99.90;;;;;;4974356;28;20027;-73
2021/07/24 10:33:41;;;;;;;6.15;4.10;;;28.50;99.90;;;;;;4973997;28;20500;-73
2021/07/24 10:36:15;;;;;;;8.07;4.78;;;28.60;99.90;;;;;;4973810;28;20027;-73
2021/07/24 10:39:03;;;;;;;9.43;6.30;;;28.50;99.90;;;;;;4973872;28;20026;-73
2021/07/24 10:41:31;;;;;;;14.95;8.00;;;28.30;99.90;;;;;;4973846;28;20109;-73
2021/07/24 10:44:03;;;;;;;10.80;8.43;;;28.20;99.90;;;;;;4973746;28;20031;-73
2021/07/24 10:46:41;;;;;;;21.50;5.47;;;28.00;99.90;;;;;;4973719;28;20110;-73
2021/07/24 10:49:07;;;;;;;107.78;93.50;;;28.20;99.90;;;;;;4973657;28;20033;-73
2021/07/24 10:51:55;;;;;;;10.85;7.53;;;28.10;99.90;;;;;;5005277;28;20022;-73
2021/07/24 10:54:24;;;;;;;15.23;8.10;;;27.90;99.90;;;;;;4992903;28;20031;-73
2021/07/24 10:56:50;;;;;;;11.50;8.32;;;28.10;99.90;;;;;;4988568;28;20082;-73
2021/07/24 10:59:19;;;;;;;11.27;9.13;;;27.90;99.90;;;;;;4973551;28;20027;-73
2021/07/24 11:01:47;;;;;;;14.48;8.40;;;27.60;99.90;;;;;;4973565;28;20481;-73
2021/07/24 11:04:37;;;;;;;12.88;8.68;;;27.40;99.90;;;;;;4972011;28;20473;-73
2021/07/24 11:07:12;;;;;;;12.55;7.50;;;27.00;99.90;;;;;;4973444;28;20681;-73
2021/07/24 11:09:39;;;;;;;7.83;5.53;;;26.80;99.90;;;;;;4973344;28;20409;-73
2021/07/24 11:12:09;;;;;;;12.30;7.03;;;26.60;99.90;;;;;;4973436;28;20297;-73
2021/07/24 11:14:34;;;;;;;8.75;5.93;;;26.50;99.90;;;;;;4972952;28;20553;-73
2021/07/24 11:17:06;;;;;;;12.55;6.72;;;26.50;99.90;;;;;;4973293;28;20035;-73
2021/07/24 11:19:33;;;;;;;9.85;6.65;;;26.40;99.90;;;;;;4973240;28;20042;-73
2021/07/24 11:22:20;;;;;;;12.25;7.75;;;26.40;99.90;;;;;;4973234;28;20038;-73
2021/07/24 11:24:52;;;;;;;13.05;7.90;;;26.60;99.90;;;;;;4972808;28;20035;-73
2021/07/24 11:27:26;;;;;;;11.48;7.55;;;26.70;99.90;;;;;;4973069;28;20038;-73
2021/07/24 11:30:04;;;;;;;12.48;7.90;;;26.70;99.90;;;;;;4973046;28;20433;-73
2021/07/24 11:32:31;;;;;;;10.82;7.72;;;26.60;99.90;;;;;;4971825;28;20068;-73
2021/07/24 11:35:02;;;;;;;13.35;6.72;;;26.60;99.90;;;;;;4972874;28;20026;-73
2021/07/24 11:37:35;;;;;;;16.38;7.25;;;26.70;99.90;;;;;;4972975;28;20516;-73
2021/07/24 11:40:02;;;;;;;10.02;5.88;;;26.80;99.90;;;;;;4972971;28;20609;-73
2021/07/24 11:42:27;;;;;;;13.23;7.13;;;26.80;99.90;;;;;;4972923;28;20030;-73
2021/07/24 11:44:53;;;;;;;13.40;7.00;;;27.10;99.90;;;;;;4972655;28;20035;-73
2021/07/24 11:47:18;;;;;;;10.10;7.70;;;27.40;99.90;;;;;;4972807;28;20031;-73
2021/07/24 11:49:44;;;;;;;11.50;7.97;;;27.60;99.90;;;;;;4976756;28;20074;-73
2021/07/24 11:52:10;;;;;;;8.23;5.28;;;27.80;99.90;;;;;;5005248;28;20027;-73
2021/07/24 11:54:36;;;;;;;10.88;5.80;;;27.80;99.90;;;;;;4992021;28;20018;-72
2021/07/24 11:57:04;;;;;;;10.90;5.72;;;27.80;99.90;;;;;;4987366;28;20035;-72
2021/07/24 11:59:31;;;;;;;9.25;5.43;;;28.30;99.90;;;;;;4972776;28;20385;-73
2021/07/24 12:01:58;;;;;;;13.10;4.93;;;28.60;99.90;;;;;;4972791;28;20114;-73
2021/07/24 12:04:25;;;;;;;10.18;5.50;;;28.70;99.90;;;;;;4971485;28;20034;-72
2021/07/24 12:06:59;;;;;;;96.88;71.35;;;29.00;99.90;;;;;;4972810;28;20026;-73
2021/07/24 12:09:26;;;;;;;12.57;9.45;;;29.90;99.90;;;;;;4972667;28;20089;-73
2021/07/24 12:12:00;;;;;;;12.75;10.23;;;30.30;99.90;;;;;;4972755;28;20023;-73
2021/07/24 12:14:27;;;;;;;44.70;14.40;;;30.40;99.90;;;;;;4972350;28;20484;-73
2021/07/24 12:17:09;;;;;;;11.50;9.45;;;30.20;99.90;;;;;;4972720;28;20118;-73
2021/07/24 12:19:37;;;;;;;11.55;9.35;;;30.70;99.70;;;;;;4971309;28;20469;-73
2021/07/24 12:22:17;;;;;;;180.68;21.75;;;30.60;98.60;;;;;;4972805;28;20027;-73
2021/07/24 12:24:44;;;;;;;17.23;8.35;;;30.50;98.60;;;;;;4972252;28;20029;-72
2021/07/24 12:27:12;;;;;;;11.80;10.27;;;30.10;98.50;;;;;;4972614;28;20110;-72
2021/07/24 12:29:48;;;;;;;51.35;7.65;;;30.60;97.80;;;;;;4972291;28;20142;-72
2021/07/24 12:32:13;;;;;;;13.05;6.43;;;30.80;96.70;;;;;;4972386;28;20037;-72
2021/07/24 12:34:39;;;;;;;9.52;6.60;;;31.00;97.90;;;;;;4972261;28;20035;-72
2021/07/24 12:37:05;;;;;;;8.93;7.05;;;30.90;98.60;;;;;;4972676;28;20105;-72